NERRS WATER METEOROLOGICAL AT NARRAGANS HADS current weather conditions

sailwx.info

Wind from 203 at 2 knots gusting 5

Air temperature 19.2° C
Dewpoint 18.2° C

Last reported at 2020-Jul-08 03:45 UTC.
Time now 2020-Jul-08 04:38 UTC

Location: N 41°38' W 071°20'.
View on Google Maps.

See reports from other nearby stations

  
Tides and Currents Weather Stations Pressure Air Temp Water Temp Dewpoint Dewpoint Depression Visibility Wind Speed Wind Dir Waves Ship Positions
date/time (UTC)wind fromknots sea level pressurealtimeterstation pressurevisibilityair tempwater tempwave heightnotes
2020-Jul-08 03:45 203 2 gusting 5 19.2
2020-Jul-08 02:45 207 3 gusting 6 18.8
2020-Jul-08 01:45 182 2 gusting 7 18.2
2020-Jul-08 00:45 172 3 gusting 6 18.4
2020-Jul-07 23:45 194 2 gusting 6 18.6
2020-Jul-07 22:45 200 2 gusting 7 18.5
2020-Jul-07 21:45 240 4 gusting 9 20.2
2020-Jul-07 20:45 227 4 gusting 10 20.6
2020-Jul-07 16:45 252 5 gusting 11 21.5
2020-Jul-07 12:45 236 3 gusting 7 18.4
2020-Jul-07 11:45 213 3 gusting 8 19.2
2020-Jul-07 10:45 180 2 gusting 4 17.6
2020-Jul-07 09:45 197 1 gusting 3 16.8
2020-Jul-07 08:45 166 1 gusting 3 17.3
2020-Jul-07 07:45 174 1 gusting 4 17.2
2020-Jul-07 06:45 211 2 gusting 5 17.6
2020-Jul-07 05:45 210 2 gusting 5 18.5
2020-Jul-07 04:45 217 3 gusting 7 18.9
2020-Jul-07 03:45 219 3 gusting 7 18.9
2020-Jul-07 02:45 246 2 gusting 5 19.7
2020-Jul-07 01:45 168 2 gusting 5 20.6
2020-Jul-07 00:45 183 2 gusting 5 20.8
2020-Jul-06 23:45 124 2 gusting 5 22.7
2020-Jul-06 22:45 098 7 gusting 11 24.0
2020-Jul-06 21:45 106 8 gusting 11 25.5
2020-Jul-06 20:45 096 9 gusting 13 26.8
2020-Jul-06 19:45 096 9 gusting 13 26.9
2020-Jul-06 18:45 106 9 gusting 13 25.3
2020-Jul-06 17:45 060 10 gusting 14 26.0
2020-Jul-06 16:45 067 11 gusting 16 25.4
2020-Jul-06 15:45 064 11 gusting 14 25.2
2020-Jul-06 14:45 055 10 gusting 13 23.2
2020-Jul-06 13:45 052 8 gusting 11 23.1
2020-Jul-06 12:45 061 7 gusting 11 21.3
2020-Jul-06 11:45 054 7 gusting 10 20.8
2020-Jul-06 10:45 036 2 gusting 4 21.5
2020-Jul-06 09:45 003 1 gusting 3 21.2
2020-Jul-06 08:45 262 3 gusting 6 21.2
2020-Jul-06 07:45 220 2 gusting 5 20.7
2020-Jul-06 06:45 243 1 gusting 2 20.6
2020-Jul-06 05:45 201 2 gusting 4 21.4
2020-Jul-06 04:45 359 3 gusting 9 21.8